Home   Weather   USA   Austin   Past weeks
Flag for USA

Past Weather in Austin, Texas, USA — October 2017

Currently: 75 °F. Mild. (Weather station: Camp Mabry / Austin City, USA). See more current weather

October 2017 Weather in Austin — Graph

°F

High & Low Weather Summary for October 2017

 TemperatureHumidityPressure
High92 °F (Oct 9, 3:51 pm)97% (Oct 3, 3:09 pm)30.38 "Hg (Oct 3, 3:09 pm)
Low39 °F (Oct 28, 7:51 am)13% (Oct 28, 4:51 pm)29.62 "Hg (Oct 8, 5:51 pm)
Average70 °F63%30.04 "Hg
* Reported Oct 1 12:51 am — Oct 31 11:51 pm, Austin. Weather by CustomWeather, © 2023

Note: Actual official high and low records may vary slightly from our data, if they occured in-between our weather recording intervals... More about our weather records

Austin Weather History for October 1, 2017

Scroll right to see more
 ConditionsComfort  
Time TempWeatherWind HumidityBarometerVisibility
12:51 am
Sun, Oct 1
67 °FClear.No wind76%30.02 "Hg10 mi
1:51 am66 °FClear.No wind78%30.01 "Hg10 mi
2:51 am66 °FClear.No wind78%29.99 "Hg10 mi
3:51 am64 °FClear.No wind84%29.98 "Hg10 mi
4:51 am64 °FClear.No wind84%29.97 "Hg10 mi
5:51 am63 °FClear.No wind87%29.96 "Hg10 mi
6:51 am62 °FClear.No wind86%29.97 "Hg10 mi
7:51 am63 °FSunny.No wind87%29.99 "Hg10 mi
8:51 am69 °FSunny.No wind76%30.00 "Hg10 mi
9:51 am75 °FSunny.No wind60%30.01 "Hg10 mi
10:51 am78 °FSunny.3 mph56%30.01 "Hg10 mi
11:51 am82 °FSunny.No wind49%30.00 "Hg10 mi
12:51 pm84 °FSunny.5 mph45%29.97 "Hg10 mi
1:51 pm87 °FSunny.5 mph43%29.94 "Hg10 mi
2:51 pm86 °FSunny.3 mph45%29.90 "Hg10 mi
3:51 pm87 °FSunny.7 mph42%29.88 "Hg10 mi
4:51 pm86 °FSunny.3 mph45%29.87 "Hg10 mi
5:51 pm85 °FSunny.3 mph48%29.86 "Hg10 mi
6:51 pm82 °FSunny.No wind55%29.87 "Hg10 mi
7:51 pm80 °FClear.3 mph56%29.87 "Hg10 mi
8:51 pm79 °FClear.3 mph60%29.87 "Hg10 mi
9:51 pm77 °FClear.No wind64%29.88 "Hg10 mi
10:51 pm75 °FClear.3 mph71%29.89 "Hg10 mi
11:51 pm74 °FClear.No wind74%29.88 "Hg10 mi
Weather by CustomWeather, © 2023

See weather overview